Terminal Aerodrome Forecast
Issued by NWS Tampa Bay Area, FL

Home | Current Version | Previous Version | Text Only | Print | Product List | Glossary On
Versions: 1 2 3 4 5 6 7 8 9 10 11 12 13 14 15 16
000
FTUS42 KTBW 222235 AAA
TAFFMY
TAF AMD
KFMY 222235Z 2223/2318 VRB10G18KT 3SM TSRA BKN040CB BKN100
     FM222315 10010KT P6SM VCTS BKN050CB BKN250
     FM230200 VRB04KT P6SM SCT250
     FM231300 08009KT P6SM SCT030 SCT250=

USA.gov is the U.S. government's official web portal to all federal, state and local government web resources and services.